sensor_id;sensor_type;location;lat;lon;timestamp;temperature;humidity
62589;DHT22;58504;48.770;9.148;2023-04-25T00:00:47;20.80;54.10
62589;DHT22;58504;48.770;9.148;2023-04-25T00:03:13;20.80;54.10
62589;DHT22;58504;48.770;9.148;2023-04-25T00:05:42;20.80;54.10
62589;DHT22;58504;48.770;9.148;2023-04-25T00:08:09;20.80;54.10
62589;DHT22;58504;48.770;9.148;2023-04-25T00:10:36;20.80;54.10
62589;DHT22;58504;48.770;9.148;2023-04-25T00:13:03;20.80;54.10
62589;DHT22;58504;48.770;9.148;2023-04-25T00:15:30;20.80;54.00
62589;DHT22;58504;48.770;9.148;2023-04-25T00:17:57;20.80;54.00
62589;DHT22;58504;48.770;9.148;2023-04-25T00:20:24;20.80;54.00
62589;DHT22;58504;48.770;9.148;2023-04-25T00:22:52;20.80;54.00
62589;DHT22;58504;48.770;9.148;2023-04-25T00:25:20;20.80;54.00
62589;DHT22;58504;48.770;9.148;2023-04-25T00:27:47;20.80;54.00
62589;DHT22;58504;48.770;9.148;2023-04-25T00:30:14;20.70;53.90
62589;DHT22;58504;48.770;9.148;2023-04-25T00:32:41;20.70;53.90
62589;DHT22;58504;48.770;9.148;2023-04-25T00:35:08;20.70;53.90
62589;DHT22;58504;48.770;9.148;2023-04-25T00:37:35;20.70;53.90
62589;DHT22;58504;48.770;9.148;2023-04-25T00:40:05;20.70;53.90
62589;DHT22;58504;48.770;9.148;2023-04-25T00:42:34;20.70;53.90
62589;DHT22;58504;48.770;9.148;2023-04-25T00:45:01;20.70;54.00
62589;DHT22;58504;48.770;9.148;2023-04-25T00:47:30;20.70;53.90
62589;DHT22;58504;48.770;9.148;2023-04-25T00:49:57;20.70;53.90
62589;DHT22;58504;48.770;9.148;2023-04-25T00:52:24;20.70;54.00
62589;DHT22;58504;48.770;9.148;2023-04-25T00:54:51;20.70;53.90
62589;DHT22;58504;48.770;9.148;2023-04-25T00:57:19;20.70;53.90
62589;DHT22;58504;48.770;9.148;2023-04-25T00:59:46;20.70;53.90
62589;DHT22;58504;48.770;9.148;2023-04-25T01:02:13;20.70;54.00
62589;DHT22;58504;48.770;9.148;2023-04-25T01:04:39;20.70;54.00
62589;DHT22;58504;48.770;9.148;2023-04-25T01:07:06;20.60;53.80
62589;DHT22;58504;48.770;9.148;2023-04-25T01:09:34;20.60;53.90
62589;DHT22;58504;48.770;9.148;2023-04-25T01:12:01;20.60;53.80
62589;DHT22;58504;48.770;9.148;2023-04-25T01:14:29;20.60;53.90
62589;DHT22;58504;48.770;9.148;2023-04-25T01:16:56;20.60;53.90
62589;DHT22;58504;48.770;9.148;2023-04-25T01:19:23;20.60;53.80
62589;DHT22;58504;48.770;9.148;2023-04-25T01:21:52;20.60;53.80
62589;DHT22;58504;48.770;9.148;2023-04-25T01:24:19;20.60;53.80
62589;DHT22;58504;48.770;9.148;2023-04-25T01:26:45;20.60;53.80
62589;DHT22;58504;48.770;9.148;2023-04-25T01:29:15;20.60;53.80
62589;DHT22;58504;48.770;9.148;2023-04-25T01:31:43;20.60;53.80
62589;DHT22;58504;48.770;9.148;2023-04-25T01:34:11;20.60;53.80
62589;DHT22;58504;48.770;9.148;2023-04-25T01:36:38;20.60;53.80
62589;DHT22;58504;48.770;9.148;2023-04-25T01:39:06;20.60;53.80
62589;DHT22;58504;48.770;9.148;2023-04-25T01:41:33;20.50;53.70
62589;DHT22;58504;48.770;9.148;2023-04-25T01:44:01;20.50;53.80
62589;DHT22;58504;48.770;9.148;2023-04-25T01:46:28;20.50;53.70
62589;DHT22;58504;48.770;9.148;2023-04-25T01:48:55;20.50;53.70
62589;DHT22;58504;48.770;9.148;2023-04-25T01:51:21;20.50;53.70
62589;DHT22;58504;48.770;9.148;2023-04-25T01:53:48;20.50;53.70
62589;DHT22;58504;48.770;9.148;2023-04-25T01:56:17;20.50;53.70
62589;DHT22;58504;48.770;9.148;2023-04-25T01:58:45;20.50;53.70
62589;DHT22;58504;48.770;9.148;2023-04-25T02:01:11;20.50;53.70
62589;DHT22;58504;48.770;9.148;2023-04-25T02:03:38;20.50;53.70
62589;DHT22;58504;48.770;9.148;2023-04-25T02:06:05;20.50;53.70
62589;DHT22;58504;48.770;9.148;2023-04-25T02:08:32;20.50;53.70
62589;DHT22;58504;48.770;9.148;2023-04-25T02:10:59;20.50;53.70
62589;DHT22;58504;48.770;9.148;2023-04-25T02:13:27;20.40;53.60
62589;DHT22;58504;48.770;9.148;2023-04-25T02:15:54;20.40;53.60
62589;DHT22;58504;48.770;9.148;2023-04-25T02:18:20;20.40;53.60
62589;DHT22;58504;48.770;9.148;2023-04-25T02:20:47;20.40;53.60
62589;DHT22;58504;48.770;9.148;2023-04-25T02:23:15;20.40;53.60
62589;DHT22;58504;48.770;9.148;2023-04-25T02:25:43;20.40;53.60
62589;DHT22;58504;48.770;9.148;2023-04-25T02:28:11;20.40;53.70
62589;DHT22;58504;48.770;9.148;2023-04-25T02:30:39;20.40;53.60
62589;DHT22;58504;48.770;9.148;2023-04-25T02:33:06;20.40;53.70
62589;DHT22;58504;48.770;9.148;2023-04-25T02:35:32;20.40;53.70
62589;DHT22;58504;48.770;9.148;2023-04-25T02:37:59;20.40;53.70
62589;DHT22;58504;48.770;9.148;2023-04-25T02:40:26;20.30;53.60
62589;DHT22;58504;48.770;9.148;2023-04-25T02:42:53;20.40;53.70
62589;DHT22;58504;48.770;9.148;2023-04-25T02:45:20;20.40;53.70
62589;DHT22;58504;48.770;9.148;2023-04-25T02:47:48;20.30;53.70
62589;DHT22;58504;48.770;9.148;2023-04-25T02:50:14;20.30;53.70
62589;DHT22;58504;48.770;9.148;2023-04-25T02:52:41;20.30;53.70
62589;DHT22;58504;48.770;9.148;2023-04-25T02:55:08;20.30;53.70
62589;DHT22;58504;48.770;9.148;2023-04-25T02:57:36;20.30;53.70
62589;DHT22;58504;48.770;9.148;2023-04-25T03:02:31;20.30;53.70
62589;DHT22;58504;48.770;9.148;2023-04-25T03:04:59;20.30;53.60
62589;DHT22;58504;48.770;9.148;2023-04-25T03:07:26;20.30;53.60
62589;DHT22;58504;48.770;9.148;2023-04-25T03:09:53;20.30;53.60
62589;DHT22;58504;48.770;9.148;2023-04-25T03:12:21;20.30;53.60
62589;DHT22;58504;48.770;9.148;2023-04-25T03:14:47;20.30;53.70
62589;DHT22;58504;48.770;9.148;2023-04-25T03:17:14;20.30;53.60
62589;DHT22;58504;48.770;9.148;2023-04-25T03:19:41;20.30;53.60
62589;DHT22;58504;48.770;9.148;2023-04-25T03:22:09;20.30;54.20
62589;DHT22;58504;48.770;9.148;2023-04-25T03:24:36;20.30;53.60
62589;DHT22;58504;48.770;9.148;2023-04-25T03:27:02;20.30;53.60
62589;DHT22;58504;48.770;9.148;2023-04-25T03:29:29;20.20;53.60
62589;DHT22;58504;48.770;9.148;2023-04-25T03:31:56;20.30;53.60
62589;DHT22;58504;48.770;9.148;2023-04-25T03:34:23;20.20;53.60
62589;DHT22;58504;48.770;9.148;2023-04-25T03:36:51;20.20;53.50
62589;DHT22;58504;48.770;9.148;2023-04-25T03:39:19;20.20;53.50
62589;DHT22;58504;48.770;9.148;2023-04-25T03:41:46;20.20;53.60
62589;DHT22;58504;48.770;9.148;2023-04-25T03:44:13;20.20;53.50
62589;DHT22;58504;48.770;9.148;2023-04-25T03:46:40;20.20;53.60
62589;DHT22;58504;48.770;9.148;2023-04-25T03:49:06;20.20;53.60
62589;DHT22;58504;48.770;9.148;2023-04-25T03:51:33;20.20;53.60
62589;DHT22;58504;48.770;9.148;2023-04-25T03:54:00;20.20;53.60
62589;DHT22;58504;48.770;9.148;2023-04-25T03:56:28;20.20;53.50
62589;DHT22;58504;48.770;9.148;2023-04-25T03:58:55;20.20;53.50
62589;DHT22;58504;48.770;9.148;2023-04-25T04:01:21;20.20;53.60
62589;DHT22;58504;48.770;9.148;2023-04-25T04:03:48;20.20;53.50
62589;DHT22;58504;48.770;9.148;2023-04-25T04:06:15;20.20;53.50
62589;DHT22;58504;48.770;9.148;2023-04-25T04:08:41;20.10;53.50
62589;DHT22;58504;48.770;9.148;2023-04-25T04:11:08;20.10;53.50
62589;DHT22;58504;48.770;9.148;2023-04-25T04:13:37;20.10;53.50
62589;DHT22;58504;48.770;9.148;2023-04-25T04:16:04;20.10;53.40
62589;DHT22;58504;48.770;9.148;2023-04-25T04:18:31;20.10;53.50
62589;DHT22;58504;48.770;9.148;2023-04-25T04:20:59;20.10;53.50
62589;DHT22;58504;48.770;9.148;2023-04-25T04:23:26;20.10;53.50
62589;DHT22;58504;48.770;9.148;2023-04-25T04:25:54;20.10;53.50
62589;DHT22;58504;48.770;9.148;2023-04-25T04:28:21;20.10;53.50
62589;DHT22;58504;48.770;9.148;2023-04-25T04:30:49;20.10;53.50
62589;DHT22;58504;48.770;9.148;2023-04-25T04:33:18;20.10;53.50
62589;DHT22;58504;48.770;9.148;2023-04-25T04:35:45;20.10;53.50
62589;DHT22;58504;48.770;9.148;2023-04-25T04:38:13;20.10;53.50
62589;DHT22;58504;48.770;9.148;2023-04-25T04:40:41;20.10;53.50
62589;DHT22;58504;48.770;9.148;2023-04-25T04:43:08;20.10;53.50
62589;DHT22;58504;48.770;9.148;2023-04-25T04:45:36;20.10;53.50
62589;DHT22;58504;48.770;9.148;2023-04-25T04:48:05;20.10;53.50
62589;DHT22;58504;48.770;9.148;2023-04-25T04:50:32;20.10;53.50
62589;DHT22;58504;48.770;9.148;2023-04-25T04:52:59;20.10;53.60
62589;DHT22;58504;48.770;9.148;2023-04-25T04:55:26;20.10;53.60
62589;DHT22;58504;48.770;9.148;2023-04-25T04:57:52;20.10;53.60
62589;DHT22;58504;48.770;9.148;2023-04-25T05:00:19;20.10;53.70
62589;DHT22;58504;48.770;9.148;2023-04-25T05:02:47;20.10;53.70
62589;DHT22;58504;48.770;9.148;2023-04-25T05:05:15;20.10;53.80
62589;DHT22;58504;48.770;9.148;2023-04-25T05:07:42;20.10;53.80
62589;DHT22;58504;48.770;9.148;2023-04-25T05:10:09;20.10;53.80
62589;DHT22;58504;48.770;9.148;2023-04-25T05:12:36;20.10;53.90
62589;DHT22;58504;48.770;9.148;2023-04-25T05:15:04;20.10;53.80
62589;DHT22;58504;48.770;9.148;2023-04-25T05:17:31;20.10;53.80
62589;DHT22;58504;48.770;9.148;2023-04-25T05:19:58;20.10;53.70
62589;DHT22;58504;48.770;9.148;2023-04-25T05:22:26;20.10;53.80
62589;DHT22;58504;48.770;9.148;2023-04-25T05:24:53;20.20;53.80
62589;DHT22;58504;48.770;9.148;2023-04-25T05:27:19;20.20;53.80
62589;DHT22;58504;48.770;9.148;2023-04-25T05:29:46;20.20;53.80
62589;DHT22;58504;48.770;9.148;2023-04-25T05:32:13;20.20;53.90
62589;DHT22;58504;48.770;9.148;2023-04-25T05:34:40;20.20;53.90
62589;DHT22;58504;48.770;9.148;2023-04-25T05:37:07;20.20;53.80
62589;DHT22;58504;48.770;9.148;2023-04-25T05:39:35;20.30;53.80
62589;DHT22;58504;48.770;9.148;2023-04-25T05:42:02;20.30;53.70
62589;DHT22;58504;48.770;9.148;2023-04-25T05:44:30;20.30;53.60
62589;DHT22;58504;48.770;9.148;2023-04-25T05:46:57;20.20;53.60
62589;DHT22;58504;48.770;9.148;2023-04-25T05:49:24;20.30;53.60
62589;DHT22;58504;48.770;9.148;2023-04-25T05:51:50;20.30;53.60
62589;DHT22;58504;48.770;9.148;2023-04-25T05:54:17;20.20;53.60
62589;DHT22;58504;48.770;9.148;2023-04-25T05:56:45;20.20;53.60
62589;DHT22;58504;48.770;9.148;2023-04-25T05:59:12;20.30;53.60
62589;DHT22;58504;48.770;9.148;2023-04-25T06:01:39;20.20;53.50
62589;DHT22;58504;48.770;9.148;2023-04-25T06:04:05;20.20;53.60
62589;DHT22;58504;48.770;9.148;2023-04-25T06:06:32;20.20;53.60
62589;DHT22;58504;48.770;9.148;2023-04-25T06:08:59;20.20;53.60
62589;DHT22;58504;48.770;9.148;2023-04-25T06:11:26;20.20;53.60
62589;DHT22;58504;48.770;9.148;2023-04-25T06:13:54;20.20;53.60
62589;DHT22;58504;48.770;9.148;2023-04-25T06:16:21;20.20;53.60
62589;DHT22;58504;48.770;9.148;2023-04-25T06:18:47;20.20;53.60
62589;DHT22;58504;48.770;9.148;2023-04-25T06:21:14;20.20;53.60
62589;DHT22;58504;48.770;9.148;2023-04-25T06:23:41;20.20;53.60
62589;DHT22;58504;48.770;9.148;2023-04-25T06:26:07;20.20;53.60
62589;DHT22;58504;48.770;9.148;2023-04-25T06:28:34;20.20;53.60
62589;DHT22;58504;48.770;9.148;2023-04-25T06:31:02;20.20;53.60
62589;DHT22;58504;48.770;9.148;2023-04-25T06:33:29;20.20;53.60
62589;DHT22;58504;48.770;9.148;2023-04-25T06:35:56;20.20;54.10
62589;DHT22;58504;48.770;9.148;2023-04-25T06:38:22;20.20;53.60
62589;DHT22;58504;48.770;9.148;2023-04-25T06:40:49;20.20;53.60
62589;DHT22;58504;48.770;9.148;2023-04-25T06:43:16;20.20;53.70
62589;DHT22;58504;48.770;9.148;2023-04-25T06:45:43;20.30;53.80
62589;DHT22;58504;48.770;9.148;2023-04-25T06:48:11;20.20;53.80
62589;DHT22;58504;48.770;9.148;2023-04-25T06:50:38;20.20;54.00
62589;DHT22;58504;48.770;9.148;2023-04-25T06:53:05;20.20;54.20
62589;DHT22;58504;48.770;9.148;2023-04-25T06:55:31;20.20;54.20
62589;DHT22;58504;48.770;9.148;2023-04-25T06:58:00;20.30;54.30
62589;DHT22;58504;48.770;9.148;2023-04-25T07:00:26;20.30;54.20
62589;DHT22;58504;48.770;9.148;2023-04-25T07:02:53;20.30;54.10
62589;DHT22;58504;48.770;9.148;2023-04-25T07:05:21;20.30;54.00
62589;DHT22;58504;48.770;9.148;2023-04-25T07:07:48;20.30;53.90
62589;DHT22;58504;48.770;9.148;2023-04-25T07:10:15;20.30;54.00
62589;DHT22;58504;48.770;9.148;2023-04-25T07:12:42;20.30;54.10
62589;DHT22;58504;48.770;9.148;2023-04-25T07:15:09;20.30;54.10
62589;DHT22;58504;48.770;9.148;2023-04-25T07:17:37;20.40;54.20
62589;DHT22;58504;48.770;9.148;2023-04-25T07:20:04;20.40;54.20
62589;DHT22;58504;48.770;9.148;2023-04-25T07:22:34;20.40;54.30
62589;DHT22;58504;48.770;9.148;2023-04-25T07:25:01;20.50;54.40
62589;DHT22;58504;48.770;9.148;2023-04-25T07:27:29;20.50;54.40
62589;DHT22;58504;48.770;9.148;2023-04-25T07:29:56;20.50;54.40
62589;DHT22;58504;48.770;9.148;2023-04-25T07:32:23;20.50;54.40
62589;DHT22;58504;48.770;9.148;2023-04-25T07:34:50;20.50;54.50
62589;DHT22;58504;48.770;9.148;2023-04-25T07:37:16;20.60;54.50
62589;DHT22;58504;48.770;9.148;2023-04-25T07:39:45;20.60;54.50
62589;DHT22;58504;48.770;9.148;2023-04-25T07:42:12;20.60;54.60
62589;DHT22;58504;48.770;9.148;2023-04-25T07:44:39;20.60;54.90
62589;DHT22;58504;48.770;9.148;2023-04-25T07:47:08;20.70;55.10
62589;DHT22;58504;48.770;9.148;2023-04-25T07:49:36;20.70;55.00
62589;DHT22;58504;48.770;9.148;2023-04-25T07:52:04;20.80;55.10
62589;DHT22;58504;48.770;9.148;2023-04-25T07:54:31;20.80;55.00
62589;DHT22;58504;48.770;9.148;2023-04-25T07:57:00;20.90;55.00
62589;DHT22;58504;48.770;9.148;2023-04-25T07:59:27;21.00;55.00
62589;DHT22;58504;48.770;9.148;2023-04-25T08:01:54;21.00;54.80
62589;DHT22;58504;48.770;9.148;2023-04-25T08:04:22;21.10;54.80
62589;DHT22;58504;48.770;9.148;2023-04-25T08:06:49;21.10;54.60
62589;DHT22;58504;48.770;9.148;2023-04-25T08:09:16;21.10;54.40
62589;DHT22;58504;48.770;9.148;2023-04-25T08:11:43;21.10;54.40
62589;DHT22;58504;48.770;9.148;2023-04-25T08:14:11;21.10;54.30
62589;DHT22;58504;48.770;9.148;2023-04-25T08:16:38;21.10;54.30
62589;DHT22;58504;48.770;9.148;2023-04-25T08:19:05;21.10;54.30
62589;DHT22;58504;48.770;9.148;2023-04-25T08:21:32;21.10;54.20
62589;DHT22;58504;48.770;9.148;2023-04-25T08:23:58;21.10;54.30
62589;DHT22;58504;48.770;9.148;2023-04-25T08:26:25;21.10;54.40
62589;DHT22;58504;48.770;9.148;2023-04-25T08:28:52;17.30;48.30
62589;DHT22;58504;48.770;9.148;2023-04-25T08:31:20;16.60;51.50
62589;DHT22;58504;48.770;9.148;2023-04-25T08:36:15;17.30;53.60
62589;DHT22;58504;48.770;9.148;2023-04-25T08:38:42;17.80;54.70
62589;DHT22;58504;48.770;9.148;2023-04-25T08:41:11;18.20;54.80
62589;DHT22;58504;48.770;9.148;2023-04-25T08:43:42;18.60;54.80
62589;DHT22;58504;48.770;9.148;2023-04-25T08:46:09;18.90;54.70
62589;DHT22;58504;48.770;9.148;2023-04-25T08:48:37;19.30;54.60
62589;DHT22;58504;48.770;9.148;2023-04-25T08:51:07;19.50;54.20
62589;DHT22;58504;48.770;9.148;2023-04-25T08:53:34;19.80;54.00
62589;DHT22;58504;48.770;9.148;2023-04-25T08:56:01;20.00;53.80
62589;DHT22;58504;48.770;9.148;2023-04-25T08:58:29;20.10;53.50
62589;DHT22;58504;48.770;9.148;2023-04-25T09:00:56;20.30;53.40
62589;DHT22;58504;48.770;9.148;2023-04-25T09:03:22;20.40;53.20
62589;DHT22;58504;48.770;9.148;2023-04-25T09:05:51;20.50;53.10
62589;DHT22;58504;48.770;9.148;2023-04-25T09:08:18;20.60;53.00
62589;DHT22;58504;48.770;9.148;2023-04-25T09:10:44;20.70;53.00
62589;DHT22;58504;48.770;9.148;2023-04-25T09:13:13;20.80;52.90
62589;DHT22;58504;48.770;9.148;2023-04-25T09:15:50;20.80;52.60
62589;DHT22;58504;48.770;9.148;2023-04-25T09:18:23;21.00;52.80
62589;DHT22;58504;48.770;9.148;2023-04-25T09:20:53;20.90;52.70
62589;DHT22;58504;48.770;9.148;2023-04-25T09:23:21;21.00;52.80
62589;DHT22;58504;48.770;9.148;2023-04-25T09:25:49;21.00;52.70
62589;DHT22;58504;48.770;9.148;2023-04-25T09:28:16;21.10;52.80
62589;DHT22;58504;48.770;9.148;2023-04-25T09:30:42;21.10;52.60
62589;DHT22;58504;48.770;9.148;2023-04-25T09:33:12;21.10;52.50
62589;DHT22;58504;48.770;9.148;2023-04-25T09:35:40;21.10;52.50
62589;DHT22;58504;48.770;9.148;2023-04-25T09:38:10;21.20;52.70
62589;DHT22;58504;48.770;9.148;2023-04-25T09:40:41;21.20;52.80
62589;DHT22;58504;48.770;9.148;2023-04-25T09:43:18;21.20;52.60
62589;DHT22;58504;48.770;9.148;2023-04-25T09:45:45;21.20;52.70
62589;DHT22;58504;48.770;9.148;2023-04-25T09:48:17;21.20;52.50
62589;DHT22;58504;48.770;9.148;2023-04-25T09:50:44;21.30;52.60
62589;DHT22;58504;48.770;9.148;2023-04-25T09:53:12;21.30;52.60
62589;DHT22;58504;48.770;9.148;2023-04-25T09:55:40;21.30;52.60
62589;DHT22;58504;48.770;9.148;2023-04-25T09:58:09;21.30;52.60
62589;DHT22;58504;48.770;9.148;2023-04-25T10:00:38;21.30;53.20
62589;DHT22;58504;48.770;9.148;2023-04-25T10:03:05;21.30;52.60
62589;DHT22;58504;48.770;9.148;2023-04-25T10:05:32;21.30;52.30
62589;DHT22;58504;48.770;9.148;2023-04-25T10:08:03;21.40;52.50
62589;DHT22;58504;48.770;9.148;2023-04-25T10:10:32;21.40;52.50
62589;DHT22;58504;48.770;9.148;2023-04-25T10:13:03;21.40;52.60
62589;DHT22;58504;48.770;9.148;2023-04-25T10:15:31;21.40;52.60
62589;DHT22;58504;48.770;9.148;2023-04-25T10:17:58;21.40;52.70
62589;DHT22;58504;48.770;9.148;2023-04-25T10:20:26;21.50;52.90
62589;DHT22;58504;48.770;9.148;2023-04-25T10:22:54;21.50;52.60
62589;DHT22;58504;48.770;9.148;2023-04-25T10:25:23;21.40;52.60
62589;DHT22;58504;48.770;9.148;2023-04-25T10:27:52;21.40;52.40
62589;DHT22;58504;48.770;9.148;2023-04-25T10:30:19;21.40;52.40
62589;DHT22;58504;48.770;9.148;2023-04-25T10:32:46;21.40;52.40
62589;DHT22;58504;48.770;9.148;2023-04-25T10:35:16;21.40;52.50
62589;DHT22;58504;48.770;9.148;2023-04-25T10:38:00;21.30;52.60
62589;DHT22;58504;48.770;9.148;2023-04-25T10:40:28;21.30;52.60
62589;DHT22;58504;48.770;9.148;2023-04-25T10:43:38;21.30;52.60
62589;DHT22;58504;48.770;9.148;2023-04-25T10:46:19;21.30;52.70
62589;DHT22;58504;48.770;9.148;2023-04-25T10:48:49;21.30;52.70
62589;DHT22;58504;48.770;9.148;2023-04-25T10:51:19;21.30;52.80
62589;DHT22;58504;48.770;9.148;2023-04-25T10:53:46;21.30;52.80
62589;DHT22;58504;48.770;9.148;2023-04-25T10:56:17;21.30;52.70
62589;DHT22;58504;48.770;9.148;2023-04-25T10:58:46;21.30;52.70
62589;DHT22;58504;48.770;9.148;2023-04-25T11:01:13;21.30;52.80
62589;DHT22;58504;48.770;9.148;2023-04-25T11:03:42;21.30;52.80
62589;DHT22;58504;48.770;9.148;2023-04-25T11:06:15;21.30;52.90
62589;DHT22;58504;48.770;9.148;2023-04-25T11:08:48;21.20;52.90
62589;DHT22;58504;48.770;9.148;2023-04-25T11:11:16;21.20;52.90
62589;DHT22;58504;48.770;9.148;2023-04-25T11:13:43;21.20;52.90
62589;DHT22;58504;48.770;9.148;2023-04-25T11:16:11;21.20;52.90
62589;DHT22;58504;48.770;9.148;2023-04-25T11:18:40;21.20;52.70
62589;DHT22;58504;48.770;9.148;2023-04-25T11:21:07;21.20;52.70
62589;DHT22;58504;48.770;9.148;2023-04-25T11:23:34;21.20;52.70
62589;DHT22;58504;48.770;9.148;2023-04-25T11:26:02;21.10;52.60
62589;DHT22;58504;48.770;9.148;2023-04-25T11:28:29;21.10;52.60
62589;DHT22;58504;48.770;9.148;2023-04-25T11:30:56;21.10;52.60
62589;DHT22;58504;48.770;9.148;2023-04-25T11:33:25;21.10;52.60
62589;DHT22;58504;48.770;9.148;2023-04-25T11:35:53;21.10;52.60
62589;DHT22;58504;48.770;9.148;2023-04-25T11:38:21;21.00;52.50
62589;DHT22;58504;48.770;9.148;2023-04-25T11:40:51;21.00;52.50
62589;DHT22;58504;48.770;9.148;2023-04-25T11:43:20;21.00;52.50
62589;DHT22;58504;48.770;9.148;2023-04-25T11:45:48;21.00;52.30
62589;DHT22;58504;48.770;9.148;2023-04-25T11:48:15;21.00;52.30
62589;DHT22;58504;48.770;9.148;2023-04-25T11:50:43;20.90;52.30
62589;DHT22;58504;48.770;9.148;2023-04-25T11:53:10;20.90;52.30
62589;DHT22;58504;48.770;9.148;2023-04-25T11:55:37;20.90;52.30
62589;DHT22;58504;48.770;9.148;2023-04-25T11:58:05;20.90;52.40
62589;DHT22;58504;48.770;9.148;2023-04-25T12:00:32;20.90;52.50
62589;DHT22;58504;48.770;9.148;2023-04-25T12:02:59;20.90;52.50
62589;DHT22;58504;48.770;9.148;2023-04-25T12:05:29;20.80;52.40
62589;DHT22;58504;48.770;9.148;2023-04-25T12:08:09;20.80;52.50
62589;DHT22;58504;48.770;9.148;2023-04-25T12:10:37;20.80;52.40
62589;DHT22;58504;48.770;9.148;2023-04-25T12:13:18;20.80;52.50
62589;DHT22;58504;48.770;9.148;2023-04-25T12:15:45;20.80;52.50
62589;DHT22;58504;48.770;9.148;2023-04-25T12:18:12;20.70;52.50
62589;DHT22;58504;48.770;9.148;2023-04-25T12:20:39;20.70;52.50
62589;DHT22;58504;48.770;9.148;2023-04-25T12:23:07;20.70;52.50
62589;DHT22;58504;48.770;9.148;2023-04-25T12:25:35;20.70;52.60
62589;DHT22;58504;48.770;9.148;2023-04-25T12:28:15;20.70;52.60
62589;DHT22;58504;48.770;9.148;2023-04-25T12:30:55;20.70;52.40
62589;DHT22;58504;48.770;9.148;2023-04-25T12:33:23;20.70;52.40
62589;DHT22;58504;48.770;9.148;2023-04-25T12:35:50;20.70;52.40
62589;DHT22;58504;48.770;9.148;2023-04-25T12:38:26;20.70;52.30
62589;DHT22;58504;48.770;9.148;2023-04-25T12:48:16;20.70;85.40
62589;DHT22;58504;48.770;9.148;2023-04-25T12:50:43;20.70;67.70
62589;DHT22;58504;48.770;9.148;2023-04-25T12:53:10;20.80;71.70
62589;DHT22;58504;48.770;9.148;2023-04-25T12:55:38;20.80;79.80
62589;DHT22;58504;48.770;9.148;2023-04-25T12:58:05;20.80;76.50
62589;DHT22;58504;48.770;9.148;2023-04-25T13:00:32;21.00;77.70
62589;DHT22;58504;48.770;9.148;2023-04-25T13:02:59;20.90;83.70
62589;DHT22;58504;48.770;9.148;2023-04-25T13:05:26;21.00;68.80
62589;DHT22;58504;48.770;9.148;2023-04-25T13:07:53;20.90;72.20
62589;DHT22;58504;48.770;9.148;2023-04-25T13:10:20;21.10;74.00
62589;DHT22;58504;48.770;9.148;2023-04-25T13:12:48;21.10;75.00
62589;DHT22;58504;48.770;9.148;2023-04-25T13:15:15;21.10;75.70
62589;DHT22;58504;48.770;9.148;2023-04-25T13:17:42;21.30;78.50
62589;DHT22;58504;48.770;9.148;2023-04-25T13:20:09;21.50;77.60
62589;DHT22;58504;48.770;9.148;2023-04-25T13:22:37;21.50;77.70
62589;DHT22;58504;48.770;9.148;2023-04-25T13:25:06;21.60;80.30
62589;DHT22;58504;48.770;9.148;2023-04-25T13:27:34;21.60;80.80
62589;DHT22;58504;48.770;9.148;2023-04-25T13:30:04;21.30;80.80
62589;DHT22;58504;48.770;9.148;2023-04-25T13:32:33;21.50;81.40
62589;DHT22;58504;48.770;9.148;2023-04-25T13:35:01;21.30;82.70
62589;DHT22;58504;48.770;9.148;2023-04-25T13:37:28;21.30;82.30
62589;DHT22;58504;48.770;9.148;2023-04-25T13:39:58;21.30;79.40
62589;DHT22;58504;48.770;9.148;2023-04-25T13:42:25;21.30;79.40
62589;DHT22;58504;48.770;9.148;2023-04-25T13:44:52;21.20;81.60
62589;DHT22;58504;48.770;9.148;2023-04-25T13:49:47;21.00;82.10
62589;DHT22;58504;48.770;9.148;2023-04-25T14:09:26;21.10;83.70
62589;DHT22;58504;48.770;9.148;2023-04-25T14:56:12;20.90;77.00
62589;DHT22;58504;48.770;9.148;2023-04-25T14:58:39;20.90;80.30
62589;DHT22;58504;48.770;9.148;2023-04-25T15:01:06;20.90;73.50
62589;DHT22;58504;48.770;9.148;2023-04-25T15:03:33;20.90;75.20
62589;DHT22;58504;48.770;9.148;2023-04-25T15:06:00;20.90;72.10
62589;DHT22;58504;48.770;9.148;2023-04-25T15:08:27;20.90;73.40
62589;DHT22;58504;48.770;9.148;2023-04-25T15:10:53;20.90;74.90
62589;DHT22;58504;48.770;9.148;2023-04-25T15:13:21;20.90;74.10
62589;DHT22;58504;48.770;9.148;2023-04-25T15:15:48;20.90;78.80
62589;DHT22;58504;48.770;9.148;2023-04-25T15:25:38;20.70;56.20
62589;DHT22;58504;48.770;9.148;2023-04-25T15:28:04;20.80;58.00
62589;DHT22;58504;48.770;9.148;2023-04-25T15:30:32;20.80;58.80
62589;DHT22;58504;48.770;9.148;2023-04-25T15:32:59;20.80;60.10
62589;DHT22;58504;48.770;9.148;2023-04-25T15:35:26;20.70;61.80
62589;DHT22;58504;48.770;9.148;2023-04-25T15:37:53;20.70;72.30
62589;DHT22;58504;48.770;9.148;2023-04-25T15:42:48;20.60;57.40
62589;DHT22;58504;48.770;9.148;2023-04-25T15:57:35;19.90;48.00
62589;DHT22;58504;48.770;9.148;2023-04-25T16:00:04;20.00;50.10
62589;DHT22;58504;48.770;9.148;2023-04-25T16:02:35;20.00;50.60
62589;DHT22;58504;48.770;9.148;2023-04-25T16:05:04;20.10;51.10
62589;DHT22;58504;48.770;9.148;2023-04-25T16:07:31;20.10;51.40
62589;DHT22;58504;48.770;9.148;2023-04-25T16:09:57;20.20;51.70
62589;DHT22;58504;48.770;9.148;2023-04-25T16:12:24;20.20;51.90
62589;DHT22;58504;48.770;9.148;2023-04-25T16:14:52;20.30;52.10
62589;DHT22;58504;48.770;9.148;2023-04-25T16:17:19;20.30;52.10
62589;DHT22;58504;48.770;9.148;2023-04-25T16:19:46;20.40;52.30
62589;DHT22;58504;48.770;9.148;2023-04-25T16:22:16;20.40;52.30
62589;DHT22;58504;48.770;9.148;2023-04-25T16:24:42;20.40;52.30
62589;DHT22;58504;48.770;9.148;2023-04-25T16:27:09;20.50;52.40
62589;DHT22;58504;48.770;9.148;2023-04-25T16:29:36;20.50;52.50
62589;DHT22;58504;48.770;9.148;2023-04-25T16:32:03;20.60;52.60
62589;DHT22;58504;48.770;9.148;2023-04-25T16:34:30;20.60;52.60
62589;DHT22;58504;48.770;9.148;2023-04-25T16:36:57;20.60;52.70
62589;DHT22;58504;48.770;9.148;2023-04-25T16:39:25;20.60;52.80
62589;DHT22;58504;48.770;9.148;2023-04-25T16:41:52;20.70;52.80
62589;DHT22;58504;48.770;9.148;2023-04-25T16:44:19;20.80;52.80
62589;DHT22;58504;48.770;9.148;2023-04-25T16:46:45;20.80;52.80
62589;DHT22;58504;48.770;9.148;2023-04-25T16:49:12;20.80;52.90
62589;DHT22;58504;48.770;9.148;2023-04-25T16:51:39;20.90;53.00
62589;DHT22;58504;48.770;9.148;2023-04-25T16:54:06;20.90;53.00
62589;DHT22;58504;48.770;9.148;2023-04-25T16:56:34;20.90;53.00
62589;DHT22;58504;48.770;9.148;2023-04-25T16:59:01;21.00;55.60
62589;DHT22;58504;48.770;9.148;2023-04-25T17:01:28;21.00;55.80
62589;DHT22;58504;48.770;9.148;2023-04-25T17:03:55;21.00;56.80
62589;DHT22;58504;48.770;9.148;2023-04-25T17:06:22;21.10;56.40
62589;DHT22;58504;48.770;9.148;2023-04-25T17:08:48;21.10;57.40
62589;DHT22;58504;48.770;9.148;2023-04-25T17:11:15;21.10;56.80